Terminal Aerodrome Forecast
Issued by NWS Twin Cities, MN

Home | Current Version | Previous Version | Text Only | Print | Product List | Glossary On
Versions: 1 2 3 4 5 6 7 8 9 10 11 12 13 14 15 16 17 18 19 20 21 22
591
FTUS43 KMPX 171131
TAFSTC
TAF
KSTC 171131Z 1712/1812 36010KT 4SM -SHRA BR OVC007
     FM171400 32013G20KT 5SM -SHRA BR OVC010
     FM171800 32015G22KT P6SM OVC020
     FM172200 33011KT P6SM SCT050
     FM180200 31006KT P6SM SCT120=

USA.gov is the U.S. government's official web portal to all federal, state and local government web resources and services.